createdAt,value
2018-11-06T00:02:05.358Z,93.40
2018-11-06T00:04:51.507Z,92.70
2018-11-06T00:07:36.044Z,93.30
2018-11-06T00:10:29.539Z,93.20
2018-11-06T00:21:29.126Z,93.10
2018-11-06T00:24:02.662Z,93.00
2018-11-06T00:26:34.887Z,93.40
2018-11-06T00:29:17.425Z,93.20
2018-11-06T00:31:51.121Z,93.10
2018-11-06T00:34:21.882Z,93.10
2018-11-06T00:36:52.224Z,92.90
2018-11-06T00:39:23.232Z,93.20
2018-11-06T00:41:55.260Z,93.20
2018-11-06T00:44:35.296Z,93.30
2018-11-06T00:47:05.322Z,93.50
2018-11-06T00:49:36.405Z,93.50
2018-11-06T00:52:12.225Z,94.20
2018-11-06T00:54:46.026Z,93.50
2018-11-06T00:57:19.968Z,93.30
2018-11-06T00:59:51.500Z,93.30
2018-11-06T01:02:23.400Z,93.10
2018-11-06T01:04:53.174Z,93.10
2018-11-06T01:07:22.971Z,93.00
2018-11-06T01:09:54.260Z,93.20
2018-11-06T01:12:26.489Z,93.20
2018-11-06T01:14:57.979Z,93.20
2018-11-06T01:17:27.949Z,93.20
2018-11-06T01:19:59.919Z,93.00
2018-11-06T01:22:32.008Z,93.30
2018-11-06T01:25:04.306Z,93.20
2018-11-06T01:27:35.559Z,93.10
2018-11-06T01:30:09.914Z,93.10
2018-11-06T01:32:40.376Z,93.00
2018-11-06T01:35:13.111Z,93.00
2018-11-06T01:37:44.414Z,93.10
2018-11-06T01:40:16.069Z,92.30
2018-11-06T01:42:46.153Z,93.30
2018-11-06T01:45:18.336Z,93.00
2018-11-06T01:47:55.496Z,93.20
2018-11-06T01:50:25.700Z,93.10
2018-11-06T01:52:55.824Z,92.90
2018-11-06T01:55:26.513Z,92.90
2018-11-06T01:57:56.089Z,92.70
2018-11-06T02:00:27.568Z,92.80
2018-11-06T02:02:57.507Z,93.30
2018-11-06T02:05:28.009Z,92.80
2018-11-06T02:07:58.793Z,92.80
2018-11-06T02:10:29.906Z,92.70
2018-11-06T02:12:59.652Z,93.70
2018-11-06T02:15:31.746Z,92.80
2018-11-06T02:18:02.585Z,92.80
2018-11-06T02:20:33.832Z,92.90
2018-11-06T02:23:04.379Z,92.80
2018-11-06T02:25:36.889Z,92.80
2018-11-06T02:28:08.240Z,92.90
2018-11-06T02:30:47.515Z,93.00
2018-11-06T02:33:17.959Z,92.80
2018-11-06T02:35:50.378Z,93.30
2018-11-06T02:38:20.613Z,92.80
2018-11-06T02:40:55.588Z,92.60
2018-11-06T02:43:27.243Z,92.80
2018-11-06T02:45:57.216Z,93.20
2018-11-06T02:48:27.477Z,93.00
2018-11-06T02:50:59.545Z,93.30
2018-11-06T02:53:30.204Z,93.10
2018-11-06T02:56:01.126Z,93.30
2018-11-06T02:58:32.544Z,93.30
2018-11-06T03:01:03.397Z,93.30
2018-11-06T03:03:40.161Z,93.30
2018-11-06T03:06:11.953Z,93.20
2018-11-06T03:08:43.504Z,92.90
2018-11-06T03:11:14.004Z,92.90
2018-11-06T03:13:43.619Z,93.00
2018-11-06T03:16:15.424Z,93.50
2018-11-06T03:18:45.165Z,93.80
2018-11-06T03:21:17.297Z,93.90
2018-11-06T03:23:47.526Z,93.80
2018-11-06T03:26:17.538Z,93.90
2018-11-06T03:28:48.939Z,94.30
2018-11-06T03:31:19.862Z,94.50
2018-11-06T03:33:50.620Z,94.20
2018-11-06T03:36:21.112Z,94.10
2018-11-06T03:38:53.900Z,94.20
2018-11-06T03:41:24.776Z,94.50
2018-11-06T03:43:55.836Z,94.90
2018-11-06T03:46:28.266Z,94.50
2018-11-06T03:48:59.105Z,94.20
2018-11-06T03:51:33.034Z,94.20
2018-11-06T03:54:04.969Z,94.40
2018-11-06T03:56:41.909Z,95.20
2018-11-06T03:59:12.935Z,94.60
2018-11-06T04:01:43.390Z,94.70
2018-11-06T04:04:13.144Z,95.00
2018-11-06T04:07:08.476Z,94.50
2018-11-06T04:09:38.715Z,95.70
2018-11-06T04:12:09.203Z,94.80
2018-11-06T04:14:41.684Z,94.80
2018-11-06T04:17:15.862Z,94.50
2018-11-06T04:19:46.017Z,94.40
2018-11-06T04:22:18.600Z,94.40
2018-11-06T04:24:49.970Z,94.80
2018-11-06T04:27:25.590Z,95.50
2018-11-06T04:30:03.264Z,94.80
2018-11-06T04:32:39.133Z,94.70
2018-11-06T04:35:10.338Z,95.10
2018-11-06T04:37:42.042Z,94.60
2018-11-06T04:40:13.987Z,94.90
2018-11-06T04:42:43.999Z,95.00
2018-11-06T04:45:14.523Z,95.20
2018-11-06T04:47:45.286Z,95.80
2018-11-06T04:50:15.787Z,95.10
2018-11-06T04:52:53.354Z,95.00
2018-11-06T04:55:25.877Z,95.20
2018-11-06T04:57:56.083Z,95.10
2018-11-06T05:00:27.539Z,95.00
2018-11-06T05:03:05.308Z,94.80
2018-11-06T05:05:35.557Z,94.60
2018-11-06T05:08:07.105Z,94.50
2018-11-06T05:10:39.051Z,94.60
2018-11-06T05:13:09.433Z,94.60
2018-11-06T05:15:40.976Z,94.40
2018-11-06T05:18:22.411Z,94.40
2018-11-06T05:23:33.988Z,94.30
2018-11-06T05:26:08.481Z,94.20
2018-11-06T05:28:40.388Z,94.20
2018-11-06T05:31:24.515Z,94.30
2018-11-06T05:33:56.047Z,94.30
2018-11-06T05:36:29.816Z,94.20
2018-11-06T05:39:04.995Z,94.30
2018-11-06T05:41:46.614Z,94.30
2018-11-06T05:44:22.088Z,94.30
2018-11-06T05:46:58.547Z,94.30
2018-11-06T05:49:34.702Z,94.30
2018-11-06T05:52:06.518Z,94.40
2018-11-06T05:54:37.848Z,94.50
2018-11-06T05:57:10.177Z,94.50
2018-11-06T05:59:40.094Z,94.60
2018-11-06T06:02:12.317Z,94.70
2018-11-06T06:04:46.812Z,94.70
2018-11-06T06:07:22.565Z,94.80
2018-11-06T06:10:04.901Z,94.80
2018-11-06T06:12:39.567Z,94.70
2018-11-06T06:15:16.983Z,94.70
2018-11-06T06:17:47.583Z,94.60
2018-11-06T06:20:20.961Z,94.60
2018-11-06T06:23:00.166Z,94.40
2018-11-06T06:25:32.920Z,94.40
2018-11-06T06:28:05.685Z,94.50
2018-11-06T06:30:39.906Z,94.70
2018-11-06T06:33:14.770Z,94.40
2018-11-06T06:35:48.786Z,94.30
2018-11-06T06:38:31.382Z,94.20
2018-11-06T06:44:06.429Z,94.20
2018-11-06T06:46:41.286Z,94.60
2018-11-06T06:49:16.741Z,94.60
2018-11-06T06:51:49.208Z,94.50
2018-11-06T06:54:20.793Z,94.30
2018-11-06T06:56:52.506Z,94.30
2018-11-06T07:02:15.886Z,94.00
2018-11-06T07:07:29.892Z,94.10
2018-11-06T07:10:04.603Z,94.00
2018-11-06T07:12:41.245Z,94.00
2018-11-06T07:15:28.079Z,94.00
2018-11-06T07:18:06.699Z,93.90
2018-11-06T07:20:41.904Z,94.20
2018-11-06T07:23:13.074Z,93.70
2018-11-06T07:25:42.652Z,93.50
2018-11-06T07:30:51.587Z,93.40
2018-11-06T07:33:21.751Z,93.10
2018-11-06T07:35:52.182Z,93.20
2018-11-06T07:38:22.874Z,93.00
2018-11-06T07:40:53.338Z,92.90
2018-11-06T07:43:23.802Z,92.60
2018-11-06T07:45:56.060Z,91.50
2018-11-06T07:48:30.682Z,92.20
2018-11-06T07:51:07.195Z,92.00
2018-11-06T07:53:37.617Z,91.70
2018-11-06T07:56:08.481Z,90.90
2018-11-06T07:58:40.372Z,91.20
2018-11-06T08:01:09.965Z,90.50
2018-11-06T08:03:51.056Z,90.50
2018-11-06T08:06:22.232Z,89.20
2018-11-06T08:11:34.841Z,87.90
2018-11-06T08:14:08.464Z,87.20
2018-11-06T08:16:37.668Z,86.30
2018-11-06T08:19:11.376Z,86.00
2018-11-06T08:21:44.345Z,85.20
2018-11-06T08:24:15.080Z,84.70
2018-11-06T08:26:50.424Z,84.70
2018-11-06T08:29:20.127Z,84.80
2018-11-06T08:31:51.281Z,84.10
2018-11-06T08:34:26.505Z,84.80
2018-11-06T08:36:56.621Z,84.30
2018-11-06T08:39:26.147Z,84.10
2018-11-06T08:42:01.641Z,83.40
2018-11-06T08:44:42.257Z,83.90
2018-11-06T08:47:12.887Z,83.80
2018-11-06T08:49:42.891Z,83.30
2018-11-06T08:52:12.810Z,83.40
2018-11-06T08:54:43.816Z,83.30
2018-11-06T08:57:15.008Z,83.60
2018-11-06T08:59:49.536Z,82.40
2018-11-06T09:02:20.248Z,81.90
2018-11-06T09:04:52.947Z,82.00
2018-11-06T09:07:23.166Z,81.90
2018-11-06T09:09:56.871Z,82.20
2018-11-06T09:12:27.893Z,81.90
2018-11-06T09:15:03.228Z,81.90
2018-11-06T09:17:38.579Z,81.60
2018-11-06T09:20:09.939Z,82.20
2018-11-06T09:22:41.498Z,81.80
2018-11-06T09:25:16.002Z,81.70
2018-11-06T09:27:46.267Z,81.40
2018-11-06T09:30:22.403Z,81.00
2018-11-06T09:33:11.787Z,80.30
2018-11-06T09:35:44.842Z,79.10
2018-11-06T09:38:16.640Z,79.20
2018-11-06T09:40:48.082Z,78.50
2018-11-06T09:43:22.371Z,78.10
2018-11-06T09:45:59.440Z,78.10
2018-11-06T09:48:33.995Z,77.80
2018-11-06T09:51:05.898Z,77.50
2018-11-06T09:53:36.778Z,77.60
2018-11-06T09:56:09.128Z,78.00
2018-11-06T09:58:38.807Z,76.10
2018-11-06T10:01:08.919Z,73.60
2018-11-06T10:03:39.615Z,68.00
2018-11-06T10:06:10.587Z,64.70
2018-11-06T10:08:44.667Z,59.00
2018-11-06T10:11:16.570Z,57.80
2018-11-06T10:13:55.469Z,54.10
2018-11-06T10:16:29.687Z,53.20
2018-11-06T10:19:07.764Z,57.20
2018-11-06T10:21:38.594Z,55.40
2018-11-06T10:24:09.068Z,51.30
2018-11-06T10:26:39.689Z,50.40
2018-11-06T10:29:12.593Z,47.80
2018-11-06T10:31:47.606Z,45.40
2018-11-06T10:34:17.850Z,45.20
2018-11-06T10:36:48.661Z,50.00
2018-11-06T10:39:18.601Z,53.30
2018-11-06T10:41:49.744Z,52.30
2018-11-06T10:44:21.062Z,52.30
2018-11-06T10:47:01.017Z,54.40
2018-11-06T10:49:30.993Z,54.30
2018-11-06T10:52:01.767Z,54.50
2018-11-06T10:54:31.983Z,54.40
2018-11-06T10:57:01.653Z,53.50
2018-11-06T10:59:34.170Z,51.80
2018-11-06T11:02:12.246Z,51.90
2018-11-06T11:04:43.282Z,51.20
2018-11-06T11:07:14.186Z,51.80
2018-11-06T11:09:45.179Z,50.10
2018-11-06T11:12:19.782Z,51.50
2018-11-06T11:14:50.574Z,48.80
2018-11-06T11:17:22.034Z,47.10
2018-11-06T11:19:52.257Z,47.60
2018-11-06T11:22:23.285Z,49.30
2018-11-06T11:24:58.490Z,51.40
2018-11-06T11:27:33.419Z,50.30
2018-11-06T11:30:20.691Z,50.60
2018-11-06T11:32:52.905Z,50.30
2018-11-06T11:35:22.842Z,50.50
2018-11-06T11:37:57.975Z,50.40
2018-11-06T11:40:30.781Z,52.40
2018-11-06T11:43:01.932Z,56.80
2018-11-06T11:45:37.840Z,57.80
2018-11-06T11:48:08.401Z,59.60
2018-11-06T11:50:37.971Z,60.80
2018-11-06T11:53:07.301Z,61.60
2018-11-06T11:55:37.015Z,61.40
2018-11-06T11:58:06.723Z,61.70
2018-11-06T12:00:41.765Z,62.20
2018-11-06T12:03:13.107Z,62.60
2018-11-06T12:05:43.373Z,63.00
2018-11-06T12:08:12.805Z,63.30
2018-11-06T12:10:43.135Z,63.70
2018-11-06T12:13:13.277Z,63.20
2018-11-06T12:15:43.060Z,62.30
2018-11-06T12:21:14.819Z,61.90
2018-11-06T12:23:46.691Z,59.50
2018-11-06T12:26:19.474Z,56.80
2018-11-06T12:28:49.062Z,55.40
2018-11-06T12:31:25.321Z,54.10
2018-11-06T12:34:01.084Z,53.40
2018-11-06T12:36:35.918Z,48.10
2018-11-06T12:39:07.194Z,46.90
2018-11-06T12:41:38.461Z,46.70
2018-11-06T12:46:50.706Z,47.40
2018-11-06T12:49:20.201Z,50.90
2018-11-06T12:51:50.490Z,54.70
2018-11-06T12:54:22.739Z,57.00
2018-11-06T12:56:53.164Z,57.80
2018-11-06T12:59:24.704Z,58.00
2018-11-06T13:01:58.430Z,58.70
2018-11-06T13:04:28.939Z,59.40
2018-11-06T13:07:01.962Z,59.60
2018-11-06T13:09:31.734Z,59.70
2018-11-06T13:12:01.234Z,60.70
2018-11-06T13:14:30.567Z,61.10
2018-11-06T13:17:02.128Z,61.60
2018-11-06T13:19:31.518Z,61.20
2018-11-06T13:22:02.696Z,61.10
2018-11-06T13:24:32.052Z,61.20
2018-11-06T13:27:01.707Z,61.30
2018-11-06T13:29:32.733Z,61.40
2018-11-06T13:32:04.615Z,61.60
2018-11-06T13:34:36.554Z,61.60
2018-11-06T13:37:06.551Z,61.90
2018-11-06T13:39:38.823Z,62.00
2018-11-06T13:42:16.308Z,60.50
2018-11-06T13:48:07.458Z,61.50
2018-11-06T13:50:39.606Z,61.50
2018-11-06T13:53:09.618Z,61.90
2018-11-06T13:55:42.921Z,62.00
2018-11-06T13:58:14.474Z,60.20
2018-11-06T14:00:50.928Z,62.30
2018-11-06T14:03:21.267Z,61.20
2018-11-06T14:05:54.998Z,62.40
2018-11-06T14:11:13.533Z,62.50
2018-11-06T14:13:46.971Z,62.50
2018-11-06T14:16:19.734Z,62.40
2018-11-06T14:18:50.497Z,62.70
2018-11-06T14:24:01.557Z,62.60
2018-11-06T14:26:39.902Z,62.10
2018-11-06T14:29:50.858Z,62.70
2018-11-06T14:38:21.336Z,64.90
2018-11-06T14:43:58.135Z,64.60
2018-11-06T14:46:51.189Z,63.80
2018-11-06T14:53:06.584Z,65.30
2018-11-06T14:58:24.299Z,66.10
2018-11-06T15:21:07.942Z,68.80
2018-11-06T15:43:48.101Z,73.80
2018-11-06T15:49:11.319Z,74.40
2018-11-06T15:51:47.437Z,74.50
2018-11-06T15:54:18.547Z,74.60
2018-11-06T15:56:58.604Z,76.10
2018-11-06T15:59:29.563Z,76.20
2018-11-06T16:02:00.016Z,76.50
2018-11-06T16:13:14.032Z,77.10
2018-11-06T16:15:45.257Z,76.80
2018-11-06T16:18:16.005Z,76.40
2018-11-06T16:20:45.601Z,77.90
2018-11-06T16:23:16.452Z,78.00
2018-11-06T16:25:57.028Z,78.00
2018-11-06T16:28:27.581Z,79.50
2018-11-06T16:30:58.076Z,77.50
2018-11-06T16:33:31.617Z,78.50
2018-11-06T16:36:04.904Z,78.70
2018-11-06T16:38:35.324Z,78.80
2018-11-06T16:41:09.270Z,78.70
2018-11-06T16:43:41.227Z,78.80
2018-11-06T16:46:12.940Z,78.80
2018-11-06T16:48:43.726Z,78.00
2018-11-06T16:51:13.025Z,78.70
2018-11-06T16:53:43.049Z,78.60
2018-11-06T16:56:13.292Z,80.20
2018-11-06T16:58:53.695Z,77.00
2018-11-06T17:01:24.599Z,79.20
2018-11-06T17:03:54.084Z,79.90
2018-11-06T17:06:32.818Z,80.10
2018-11-06T17:09:05.524Z,79.10
2018-11-06T17:14:12.116Z,79.30
2018-11-06T17:16:42.148Z,80.10
2018-11-06T17:19:13.242Z,79.50
2018-11-06T17:21:43.443Z,80.40
2018-11-06T17:24:18.730Z,80.60
2018-11-06T17:26:49.083Z,81.00
2018-11-06T17:29:20.357Z,80.80
2018-11-06T17:31:54.675Z,79.80
2018-11-06T17:34:24.581Z,81.30
2018-11-06T17:36:58.161Z,81.20
2018-11-06T17:39:28.793Z,81.60
2018-11-06T17:42:01.091Z,81.30
2018-11-06T17:44:34.947Z,81.30
2018-11-06T17:47:05.277Z,81.60
2018-11-06T17:49:37.609Z,80.70
2018-11-06T17:52:18.282Z,80.60
2018-11-06T17:54:48.356Z,81.50
2018-11-06T17:57:21.794Z,82.50
2018-11-06T17:59:55.069Z,81.10
2018-11-06T18:02:42.797Z,83.40
2018-11-06T18:05:16.715Z,82.40
2018-11-06T18:07:46.475Z,82.30
2018-11-06T18:10:25.939Z,83.30
2018-11-06T18:15:47.539Z,83.70
2018-11-06T18:18:21.519Z,83.60
2018-11-06T18:20:54.843Z,83.00
2018-11-06T18:23:30.030Z,83.20
2018-11-06T18:26:01.190Z,83.10
2018-11-06T18:28:33.561Z,83.30
2018-11-06T18:31:05.154Z,83.40
2018-11-06T18:33:57.598Z,84.20
2018-11-06T18:36:29.307Z,84.00
2018-11-06T18:39:04.111Z,88.20
2018-11-06T18:41:39.954Z,85.20
2018-11-06T18:44:13.772Z,83.90
2018-11-06T18:46:52.639Z,86.00
2018-11-06T18:49:23.750Z,86.00
2018-11-06T18:51:55.125Z,85.10
2018-11-06T18:54:28.632Z,85.40
2018-11-06T18:56:58.944Z,87.50
2018-11-06T18:59:31.599Z,85.00
2018-11-06T19:02:01.092Z,86.10
2018-11-06T19:04:33.203Z,87.20
2018-11-06T19:07:05.170Z,87.70
2018-11-06T19:09:38.606Z,85.50
2018-11-06T19:12:09.027Z,85.80
2018-11-06T19:14:39.028Z,86.60
2018-11-06T19:17:10.542Z,87.70
2018-11-06T19:19:44.142Z,86.80
2018-11-06T19:24:57.627Z,86.60
2018-11-06T19:27:27.945Z,86.90
2018-11-06T19:30:04.904Z,86.40
2018-11-06T19:32:43.348Z,88.00
2018-11-06T19:35:13.109Z,86.40
2018-11-06T19:40:24.891Z,87.60
2018-11-06T19:42:59.424Z,87.40
2018-11-06T19:45:29.268Z,87.90
2018-11-06T19:48:04.444Z,87.50
2018-11-06T19:50:36.328Z,87.10
2018-11-06T19:53:08.208Z,88.20
2018-11-06T19:55:43.335Z,86.30
2018-11-06T19:58:14.863Z,87.60
2018-11-06T20:01:00.348Z,87.50
2018-11-06T20:06:09.665Z,88.40
2018-11-06T20:08:45.651Z,88.20
2018-11-06T20:11:17.049Z,87.60
2018-11-06T20:13:56.742Z,88.50
2018-11-06T20:16:28.915Z,88.10
2018-11-06T20:19:00.360Z,88.30
2018-11-06T20:21:35.540Z,88.30
2018-11-06T20:24:08.229Z,88.60
2018-11-06T20:26:49.949Z,88.40
2018-11-06T20:29:22.631Z,89.10
2018-11-06T20:31:52.217Z,89.10
2018-11-06T20:34:24.306Z,88.80
2018-11-06T20:36:59.470Z,88.80
2018-11-06T20:39:32.608Z,88.60
2018-11-06T20:42:02.112Z,89.50
2018-11-06T20:44:32.126Z,89.40
2018-11-06T20:47:08.308Z,88.90
2018-11-06T20:49:41.484Z,89.20
2018-11-06T20:52:15.520Z,89.10
2018-11-06T20:54:48.692Z,89.60
2018-11-06T20:57:19.985Z,90.40
2018-11-06T20:59:51.651Z,90.40
2018-11-06T21:02:23.930Z,90.40
2018-11-06T21:05:04.806Z,88.80
2018-11-06T21:07:37.833Z,88.80
2018-11-06T21:10:10.188Z,88.70
2018-11-06T21:12:41.084Z,88.70
2018-11-06T21:15:14.249Z,88.60
2018-11-06T21:17:46.050Z,88.90
2018-11-06T21:20:19.122Z,90.00
2018-11-06T21:22:50.556Z,88.70
2018-11-06T21:25:21.195Z,88.90
2018-11-06T21:27:51.071Z,88.70
2018-11-06T21:30:23.670Z,88.10
2018-11-06T21:32:57.878Z,89.90
2018-11-06T21:35:29.905Z,88.90
2018-11-06T21:38:01.968Z,89.00
2018-11-06T21:40:33.568Z,88.70
2018-11-06T21:43:09.004Z,88.60
2018-11-06T21:45:39.915Z,87.20
2018-11-06T21:48:10.934Z,88.70
2018-11-06T21:50:44.249Z,88.60
2018-11-06T21:53:14.495Z,88.50
2018-11-06T21:55:47.030Z,88.40
2018-11-06T21:58:21.497Z,88.30
2018-11-06T22:00:53.811Z,88.70
2018-11-06T22:03:23.584Z,88.60
2018-11-06T22:05:52.983Z,88.80
2018-11-06T22:08:23.967Z,88.80
2018-11-06T22:10:54.080Z,89.50
2018-11-06T22:13:27.050Z,88.90
2018-11-06T22:15:58.280Z,89.00
2018-11-06T22:18:30.489Z,89.00
2018-11-06T22:20:59.913Z,88.90
2018-11-06T22:23:35.090Z,89.00
2018-11-06T22:26:04.667Z,89.00
2018-11-06T22:28:36.395Z,88.90
2018-11-06T22:31:07.330Z,88.80
2018-11-06T22:33:38.265Z,88.90
2018-11-06T22:36:13.829Z,89.00
2018-11-06T22:38:43.893Z,89.40
2018-11-06T22:41:14.568Z,89.40
2018-11-06T22:43:44.982Z,89.30
2018-11-06T22:46:14.402Z,89.40
2018-11-06T22:48:45.790Z,89.40
2018-11-06T22:51:22.544Z,89.00
2018-11-06T22:53:58.907Z,89.50
2018-11-06T22:56:28.639Z,89.80
2018-11-06T22:59:00.758Z,89.80
2018-11-06T23:01:33.115Z,89.90
2018-11-06T23:04:03.445Z,90.00
2018-11-06T23:06:34.106Z,90.00
2018-11-06T23:09:06.705Z,90.20
2018-11-06T23:11:38.225Z,90.30
2018-11-06T23:14:10.194Z,90.40
2018-11-06T23:16:44.645Z,90.30
2018-11-06T23:19:15.689Z,90.70
2018-11-06T23:21:47.458Z,90.30
2018-11-06T23:24:17.951Z,90.30
2018-11-06T23:26:50.507Z,90.50
2018-11-06T23:29:22.522Z,90.70
2018-11-06T23:31:54.233Z,90.70
2018-11-06T23:34:24.432Z,90.60
2018-11-06T23:36:57.156Z,90.60
2018-11-06T23:39:27.153Z,90.60
2018-11-06T23:41:59.927Z,90.80
2018-11-06T23:44:31.007Z,91.00
2018-11-06T23:47:00.921Z,91.60
2018-11-06T23:49:32.009Z,91.00
2018-11-06T23:52:02.873Z,91.10
2018-11-06T23:54:45.365Z,91.20
2018-11-06T23:57:16.808Z,91.00
2018-11-06T23:59:46.846Z,90.90
